createdAt,value
2018-09-09T00:00:18.562Z,67.20
2018-09-09T00:05:20.709Z,69.70
2018-09-09T00:10:22.945Z,70.20
2018-09-09T00:15:25.209Z,70.90
2018-09-09T00:20:27.409Z,70.60
2018-09-09T00:25:29.617Z,72.60
2018-09-09T00:30:31.827Z,72.90
2018-09-09T00:35:34.026Z,73.30
2018-09-09T00:40:36.199Z,73.10
2018-09-09T00:45:38.361Z,72.40
2018-09-09T00:50:46.277Z,71.90
2018-09-09T00:55:48.441Z,71.00
2018-09-09T01:00:56.366Z,71.90
2018-09-09T01:05:58.553Z,72.40
2018-09-09T01:11:00.755Z,72.20
2018-09-09T01:16:03.205Z,73.90
2018-09-09T01:21:05.532Z,73.80
2018-09-09T01:26:07.718Z,74.60
2018-09-09T01:31:09.910Z,74.50
2018-09-09T01:36:12.186Z,75.10
2018-09-09T01:41:14.362Z,75.40
2018-09-09T01:46:16.552Z,76.20
2018-09-09T01:51:18.777Z,75.40
2018-09-09T01:56:21.088Z,75.50
2018-09-09T02:01:23.467Z,75.50
2018-09-09T02:06:25.657Z,75.60
2018-09-09T02:11:27.845Z,75.80
2018-09-09T02:16:30.018Z,77.20
2018-09-09T02:21:32.198Z,77.00
2018-09-09T02:26:34.651Z,77.10
2018-09-09T02:31:36.983Z,77.40
2018-09-09T02:36:45.934Z,77.80
2018-09-09T02:41:48.135Z,77.90
2018-09-09T02:46:50.342Z,78.30
2018-09-09T02:51:52.583Z,80.00
2018-09-09T02:56:54.825Z,80.20
2018-09-09T03:01:57.075Z,80.20
2018-09-09T03:06:59.286Z,81.10
2018-09-09T03:12:01.486Z,82.30
2018-09-09T03:17:03.667Z,82.80
2018-09-09T03:22:05.843Z,82.30
2018-09-09T03:27:08.037Z,84.80
2018-09-09T03:32:10.247Z,83.80
2018-09-09T03:37:12.430Z,85.00
2018-09-09T03:42:14.629Z,85.60
2018-09-09T03:47:16.876Z,85.60
2018-09-09T03:52:19.118Z,84.00
2018-09-09T03:57:21.309Z,84.70
2018-09-09T04:02:23.498Z,85.00
2018-09-09T04:07:25.678Z,85.20
2018-09-09T04:12:27.877Z,84.60
2018-09-09T04:17:30.065Z,84.90
2018-09-09T04:22:32.235Z,85.90
2018-09-09T04:27:34.410Z,85.00
2018-09-09T04:32:36.618Z,83.70
2018-09-09T04:37:38.832Z,85.20
2018-09-09T04:42:41.874Z,87.50
2018-09-09T04:47:44.265Z,89.00
2018-09-09T04:52:46.485Z,88.50
2018-09-09T04:57:48.934Z,89.60
2018-09-09T05:02:51.111Z,95.90
2018-09-09T05:07:53.290Z,93.70
2018-09-09T05:12:55.529Z,91.60
2018-09-09T05:17:57.730Z,91.00
2018-09-09T05:22:59.923Z,90.60
2018-09-09T05:28:02.126Z,91.60
2018-09-09T05:33:04.313Z,90.00
2018-09-09T05:38:06.534Z,90.60
2018-09-09T05:43:08.723Z,90.10
2018-09-09T05:48:10.926Z,90.30
2018-09-09T05:53:13.137Z,87.70
2018-09-09T05:58:18.555Z,87.00
2018-09-09T06:03:21.095Z,87.80
2018-09-09T06:08:23.566Z,87.50
2018-09-09T06:13:26.574Z,88.10
2018-09-09T06:18:29.365Z,87.80
2018-09-09T06:23:31.735Z,87.60
2018-09-09T06:28:33.968Z,86.20
2018-09-09T06:33:36.257Z,84.70
2018-09-09T06:38:38.421Z,84.00
2018-09-09T06:43:40.728Z,84.70
2018-09-09T06:48:42.910Z,82.00
2018-09-09T06:53:45.113Z,81.30
2018-09-09T06:58:47.283Z,74.50
2018-09-09T07:03:49.491Z,73.00
2018-09-09T07:08:51.674Z,70.70
2018-09-09T07:13:53.841Z,73.90
2018-09-09T07:18:56.015Z,70.30
2018-09-09T07:23:58.253Z,66.40
2018-09-09T07:29:00.417Z,69.70
2018-09-09T07:34:03.177Z,66.70
2018-09-09T07:39:06.346Z,57.40
2018-09-09T07:44:08.774Z,56.80
2018-09-09T07:49:11.117Z,53.50
2018-09-09T07:54:13.458Z,54.20
2018-09-09T07:59:15.653Z,55.90
2018-09-09T08:04:17.793Z,55.80
2018-09-09T08:09:19.929Z,55.90
2018-09-09T08:14:22.086Z,51.50
2018-09-09T08:19:24.708Z,49.80
2018-09-09T08:24:26.939Z,48.60
2018-09-09T08:29:29.122Z,45.50
2018-09-09T08:34:31.285Z,43.80
2018-09-09T08:39:33.709Z,42.60
2018-09-09T08:44:36.286Z,41.00
2018-09-09T08:49:38.779Z,38.60
2018-09-09T08:54:40.969Z,39.90
2018-09-09T08:59:43.137Z,42.20
2018-09-09T09:04:45.289Z,39.90
2018-09-09T09:09:47.441Z,38.60
2018-09-09T09:14:49.685Z,36.80
2018-09-09T09:19:51.772Z,36.70
2018-09-09T09:24:53.926Z,37.00
2018-09-09T09:29:56.849Z,38.20
2018-09-09T09:34:59.022Z,38.80
2018-09-09T09:40:01.217Z,40.30
2018-09-09T09:45:03.509Z,38.80
2018-09-09T09:50:05.674Z,39.00
2018-09-09T09:55:07.892Z,34.70
2018-09-09T10:00:14.673Z,34.60
2018-09-09T10:05:16.833Z,35.20
2018-09-09T10:10:19.318Z,35.40
2018-09-09T10:15:21.509Z,36.10
2018-09-09T10:20:23.728Z,38.80
2018-09-09T10:25:25.874Z,38.90
2018-09-09T10:30:28.061Z,39.80
2018-09-09T10:35:30.570Z,38.10
2018-09-09T10:40:32.790Z,40.40
2018-09-09T10:45:34.962Z,37.40
2018-09-09T10:50:37.145Z,40.00
2018-09-09T10:55:39.337Z,40.80
2018-09-09T11:00:41.525Z,39.30
2018-09-09T11:05:43.666Z,37.70
2018-09-09T11:10:46.161Z,39.60
2018-09-09T11:15:48.340Z,39.00
2018-09-09T11:20:50.497Z,38.70
2018-09-09T11:25:52.672Z,39.10
2018-09-09T11:30:54.845Z,38.00
2018-09-09T11:35:57.009Z,37.50
2018-09-09T11:40:59.192Z,37.90
2018-09-09T11:46:01.341Z,37.60
2018-09-09T11:51:03.483Z,37.60
2018-09-09T11:56:05.888Z,36.80
2018-09-09T12:01:08.146Z,37.00
2018-09-09T12:06:10.354Z,37.10
2018-09-09T12:11:13.098Z,37.30
2018-09-09T12:16:15.365Z,36.60
2018-09-09T12:21:17.666Z,36.20
2018-09-09T12:26:19.822Z,36.10
2018-09-09T12:31:22.501Z,35.10
2018-09-09T12:36:25.072Z,35.10
2018-09-09T12:41:27.346Z,35.80
2018-09-09T12:46:35.353Z,35.40
2018-09-09T12:51:37.549Z,34.50
2018-09-09T12:56:39.707Z,35.00
2018-09-09T13:01:41.862Z,35.10
2018-09-09T13:06:44.001Z,34.10
2018-09-09T13:11:46.263Z,29.30
2018-09-09T13:16:49.116Z,29.20
2018-09-09T13:21:51.714Z,28.80
2018-09-09T13:26:54.067Z,26.50
2018-09-09T13:31:56.245Z,27.80
2018-09-09T13:36:58.394Z,28.50
2018-09-09T13:42:00.953Z,29.20
2018-09-09T13:47:03.338Z,29.20
2018-09-09T13:52:05.965Z,29.20
2018-09-09T13:57:08.105Z,28.50
2018-09-09T14:02:10.253Z,29.90
2018-09-09T14:07:12.566Z,29.20
2018-09-09T14:12:14.752Z,31.10
2018-09-09T14:17:17.037Z,31.60
2018-09-09T14:22:19.363Z,30.40
2018-09-09T14:27:21.518Z,29.00
2018-09-09T14:32:23.732Z,30.00
2018-09-09T14:37:25.909Z,28.60
2018-09-09T14:42:28.069Z,29.40
2018-09-09T14:47:30.218Z,27.90
2018-09-09T14:52:32.373Z,28.30
2018-09-09T14:57:34.520Z,28.70
2018-09-09T15:02:36.709Z,27.80
2018-09-09T15:07:38.897Z,30.10
2018-09-09T15:12:41.073Z,29.60
2018-09-09T15:17:43.249Z,30.20
2018-09-09T15:22:45.433Z,31.00
2018-09-09T15:27:47.625Z,31.30
2018-09-09T15:32:49.791Z,29.60
2018-09-09T15:37:51.946Z,30.00
2018-09-09T15:42:54.085Z,29.40
2018-09-09T15:47:56.225Z,28.00
2018-09-09T15:52:58.538Z,28.80
2018-09-09T15:58:00.703Z,30.70
2018-09-09T16:03:03.463Z,28.80
2018-09-09T16:08:05.725Z,28.70
2018-09-09T16:13:08.025Z,26.90
2018-09-09T16:18:10.338Z,27.50
2018-09-09T16:23:12.491Z,26.80
2018-09-09T16:28:14.641Z,28.00
2018-09-09T16:33:16.966Z,27.20
2018-09-09T16:38:19.250Z,27.20
2018-09-09T16:43:21.436Z,28.50
2018-09-09T16:48:23.573Z,29.30
2018-09-09T16:53:25.727Z,28.20
2018-09-09T16:58:27.859Z,27.50
2018-09-09T17:03:30.002Z,27.70
2018-09-09T17:08:32.154Z,27.30
2018-09-09T17:13:34.429Z,28.10
2018-09-09T17:18:36.613Z,31.10
2018-09-09T17:23:38.745Z,30.70
2018-09-09T17:28:40.881Z,31.70
2018-09-09T17:33:43.037Z,32.80
2018-09-09T17:38:45.990Z,34.20
2018-09-09T17:43:48.342Z,34.60
2018-09-09T17:48:50.483Z,34.70
2018-09-09T17:53:52.647Z,35.40
2018-09-09T17:58:54.785Z,36.10
2018-09-09T18:03:56.985Z,37.00
2018-09-09T18:08:59.178Z,37.80
2018-09-09T18:14:01.411Z,38.20
2018-09-09T18:19:03.578Z,38.60
2018-09-09T18:24:05.722Z,38.90
2018-09-09T18:29:07.866Z,39.10
2018-09-09T18:34:10.023Z,39.50
2018-09-09T18:39:12.389Z,39.90
2018-09-09T18:44:14.497Z,40.40
2018-09-09T18:49:16.933Z,40.40
2018-09-09T18:54:19.145Z,40.60
2018-09-09T18:59:21.350Z,40.80
2018-09-09T19:04:23.482Z,41.10
2018-09-09T19:09:25.629Z,41.50
2018-09-09T19:14:27.798Z,41.80
2018-09-09T19:19:29.945Z,42.40
2018-09-09T19:24:32.417Z,42.70
2018-09-09T19:29:34.637Z,43.00
2018-09-09T19:34:37.045Z,43.40
2018-09-09T19:39:39.237Z,44.20
2018-09-09T19:44:41.378Z,44.20
2018-09-09T19:49:43.582Z,44.30
2018-09-09T19:54:45.750Z,44.50
2018-09-09T19:59:47.903Z,44.80
2018-09-09T20:04:50.153Z,45.20
2018-09-09T20:09:52.229Z,45.20
2018-09-09T20:14:54.508Z,45.50
2018-09-09T20:19:56.641Z,45.50
2018-09-09T20:24:58.844Z,45.50
2018-09-09T20:30:01.577Z,45.70
2018-09-09T20:35:03.915Z,46.00
2018-09-09T20:40:06.121Z,46.50
2018-09-09T20:45:08.340Z,46.70
2018-09-09T20:50:10.529Z,46.70
2018-09-09T20:55:13.468Z,47.10
2018-09-09T21:00:16.021Z,47.40
2018-09-09T21:05:18.121Z,47.70
2018-09-09T21:10:20.334Z,48.30
2018-09-09T21:15:22.508Z,49.10
2018-09-09T21:20:24.687Z,49.20
2018-09-09T21:25:27.731Z,49.60
2018-09-09T21:30:30.130Z,50.10
2018-09-09T21:35:32.549Z,50.90
2018-09-09T21:40:34.711Z,52.70
2018-09-09T21:45:38.820Z,53.10
2018-09-09T21:50:41.153Z,54.70
2018-09-09T21:55:43.333Z,56.00
2018-09-09T22:00:51.206Z,56.20
2018-09-09T22:05:53.641Z,57.80
2018-09-09T22:10:55.837Z,59.20
2018-09-09T22:15:58.030Z,60.40
2018-09-09T22:21:00.225Z,60.60
2018-09-09T22:26:02.485Z,60.30
2018-09-09T22:31:04.685Z,62.70
2018-09-09T22:36:06.902Z,61.60
2018-09-09T22:41:09.249Z,60.70
2018-09-09T22:46:11.457Z,61.40
2018-09-09T22:51:13.645Z,62.50
2018-09-09T22:56:15.829Z,62.80
2018-09-09T23:01:18.188Z,62.60
2018-09-09T23:06:20.738Z,63.00
2018-09-09T23:11:22.893Z,63.30
2018-09-09T23:16:25.082Z,63.30
2018-09-09T23:21:27.269Z,63.80
2018-09-09T23:26:30.768Z,64.60
2018-09-09T23:31:33.652Z,64.60
2018-09-09T23:36:35.948Z,67.00
2018-09-09T23:41:38.123Z,66.60
2018-09-09T23:46:40.287Z,66.20
2018-09-09T23:51:42.465Z,67.50
2018-09-09T23:56:44.661Z,68.10
